createdAt,value
2023-03-22T00:02:34.156Z,3.67
2023-03-22T00:06:17.271Z,3.20
2023-03-22T00:09:59.122Z,3.30
2023-03-22T00:13:43.417Z,3.53
2023-03-22T00:17:25.825Z,2.97
2023-03-22T00:21:13.611Z,3.23
2023-03-22T00:24:59.707Z,3.00
2023-03-22T00:28:43.271Z,2.92
2023-03-22T00:32:29.038Z,3.22
2023-03-22T00:36:12.386Z,3.40
2023-03-22T00:39:56.881Z,2.60
2023-03-22T00:43:40.791Z,3.33
2023-03-22T00:47:23.557Z,3.97
2023-03-22T00:51:06.571Z,3.47
2023-03-22T00:54:49.137Z,4.57
2023-03-22T00:58:31.798Z,3.17
2023-03-22T01:02:17.669Z,3.33
2023-03-22T01:06:03.750Z,2.80
2023-03-22T01:09:49.707Z,2.85
2023-03-22T01:13:32.645Z,2.92
2023-03-22T01:17:15.324Z,3.92
2023-03-22T01:21:00.008Z,3.35
2023-03-22T01:24:42.294Z,3.13
2023-03-22T01:28:26.506Z,2.60
2023-03-22T01:32:08.984Z,2.60
2023-03-22T01:35:52.370Z,2.55
2023-03-22T01:39:34.558Z,2.60
2023-03-22T01:43:18.304Z,2.95
2023-03-22T01:47:00.224Z,2.50
2023-03-22T01:50:46.919Z,2.50
2023-03-22T01:54:44.135Z,2.45
2023-03-22T01:58:27.864Z,2.50
2023-03-22T02:02:19.780Z,2.15
2023-03-22T02:06:02.358Z,1.80
2023-03-22T02:09:44.292Z,2.20
2023-03-22T02:13:48.114Z,2.72
2023-03-22T02:18:06.707Z,2.45
2023-03-22T02:22:21.838Z,2.28
2023-03-22T02:26:15.691Z,2.08
2023-03-22T02:30:07.112Z,2.25
2023-03-22T02:34:15.543Z,3.30
2023-03-22T02:38:12.668Z,2.58
2023-03-22T02:42:23.899Z,2.45
2023-03-22T02:46:30.998Z,2.47
2023-03-22T02:50:33.817Z,2.45
2023-03-22T02:54:21.717Z,1.90
2023-03-22T02:58:10.154Z,2.70
2023-03-22T03:01:56.105Z,2.70
2023-03-22T03:05:48.065Z,2.40
2023-03-22T03:09:31.606Z,2.60
2023-03-22T03:13:15.893Z,2.80
2023-03-22T03:17:35.359Z,2.53
2023-03-22T03:21:42.594Z,2.30
2023-03-22T03:25:38.613Z,2.22
2023-03-22T03:29:32.302Z,2.63
2023-03-22T03:33:18.290Z,2.72
2023-03-22T03:37:15.928Z,2.20
2023-03-22T03:41:20.137Z,2.17
2023-03-22T03:45:02.430Z,2.15
2023-03-22T03:48:49.434Z,2.63
2023-03-22T03:52:31.552Z,2.30
2023-03-22T03:56:13.280Z,3.35
2023-03-22T03:59:55.266Z,2.33
2023-03-22T04:03:37.742Z,2.90
2023-03-22T04:07:19.450Z,2.43
2023-03-22T04:11:01.191Z,2.13
2023-03-22T04:14:43.270Z,2.40
2023-03-22T04:18:25.055Z,2.80
2023-03-22T04:22:06.776Z,2.50
2023-03-22T04:25:50.279Z,2.60
2023-03-22T04:29:32.425Z,2.97
2023-03-22T04:33:15.237Z,2.42
2023-03-22T04:36:57.503Z,2.28
2023-03-22T04:40:39.581Z,3.13
2023-03-22T04:44:22.779Z,3.22
2023-03-22T04:48:04.583Z,2.60
2023-03-22T04:51:46.343Z,2.60
2023-03-22T04:55:28.095Z,2.00
2023-03-22T04:59:10.969Z,2.15
2023-03-22T05:02:52.996Z,2.10
2023-03-22T05:06:34.896Z,2.00
2023-03-22T05:10:17.453Z,1.95
2023-03-22T05:13:59.272Z,1.58
2023-03-22T05:17:41.152Z,1.80
2023-03-22T05:21:36.768Z,2.00
2023-03-22T05:25:18.561Z,2.10
2023-03-22T05:29:00.294Z,2.08
2023-03-22T05:32:45.959Z,1.83
2023-03-22T05:36:29.694Z,2.88
2023-03-22T05:40:11.679Z,2.05
2023-03-22T05:43:53.520Z,1.80
2023-03-22T05:47:36.193Z,2.20
2023-03-22T05:51:19.072Z,2.15
2023-03-22T05:55:00.881Z,1.90
2023-03-22T05:58:42.700Z,2.28
2023-03-22T06:02:25.946Z,2.13
2023-03-22T06:09:52.352Z,2.95
2023-03-22T06:13:34.355Z,2.58
2023-03-22T06:17:16.548Z,2.22
2023-03-22T06:20:59.513Z,2.15
2023-03-22T06:24:42.385Z,2.10
2023-03-22T06:28:26.691Z,2.47
2023-03-22T06:32:11.315Z,2.13
2023-03-22T06:35:53.112Z,2.00
2023-03-22T06:39:38.370Z,1.77
2023-03-22T06:43:20.314Z,1.77
2023-03-22T06:47:02.981Z,1.75
2023-03-22T06:50:45.275Z,2.38
2023-03-22T06:54:27.678Z,1.77
2023-03-22T06:58:09.506Z,1.80
2023-03-22T07:01:51.412Z,3.63
2023-03-22T07:05:33.133Z,3.13
2023-03-22T07:09:15.228Z,4.13
2023-03-22T07:12:57.333Z,3.53
2023-03-22T07:16:39.058Z,2.75
2023-03-22T07:20:22.357Z,3.63
2023-03-22T07:27:46.206Z,3.55
2023-03-22T07:31:29.152Z,3.42
2023-03-22T07:35:11.163Z,3.25
2023-03-22T07:38:53.023Z,2.83
2023-03-22T07:42:34.878Z,2.78
2023-03-22T07:46:16.892Z,3.10
2023-03-22T07:49:58.813Z,4.22
2023-03-22T07:53:40.785Z,3.83
2023-03-22T07:57:22.501Z,3.50
2023-03-22T08:01:09.004Z,3.42
2023-03-22T08:04:54.511Z,3.67
2023-03-22T08:08:38.619Z,2.70
2023-03-22T08:12:20.456Z,4.28
2023-03-22T08:16:02.301Z,3.20
2023-03-22T08:19:44.293Z,3.95
2023-03-22T08:23:40.486Z,4.15
2023-03-22T08:27:23.065Z,3.92
2023-03-22T08:31:16.124Z,3.83
2023-03-22T08:34:57.884Z,3.55
2023-03-22T08:38:39.654Z,4.93
2023-03-22T08:42:21.813Z,4.38
2023-03-22T08:46:03.772Z,4.45
2023-03-22T08:49:45.660Z,3.88
2023-03-22T08:53:27.776Z,4.32
2023-03-22T08:57:10.936Z,4.90
2023-03-22T09:00:52.800Z,3.83
2023-03-22T09:04:34.783Z,5.32
2023-03-22T09:08:19.594Z,3.55
2023-03-22T09:12:01.528Z,4.60
2023-03-22T09:15:46.893Z,4.93
2023-03-22T09:19:28.844Z,5.78
2023-03-22T09:23:10.661Z,4.45
2023-03-22T09:26:52.441Z,4.40
2023-03-22T09:30:34.136Z,4.60
2023-03-22T09:34:16.764Z,4.85
2023-03-22T09:37:59.999Z,4.03
2023-03-22T09:41:55.860Z,4.97
2023-03-22T09:45:47.140Z,4.88
2023-03-22T09:49:52.554Z,4.20
2023-03-22T09:53:35.172Z,3.83
2023-03-22T09:57:38.925Z,4.15
2023-03-22T10:01:47.331Z,4.60
2023-03-22T10:05:35.236Z,4.10
2023-03-22T10:09:28.436Z,4.30
2023-03-22T10:13:35.885Z,3.92
2023-03-22T10:17:23.166Z,4.93
2023-03-22T10:21:17.037Z,4.35
2023-03-22T10:25:00.602Z,4.72
2023-03-22T10:28:46.433Z,4.18
2023-03-22T10:32:37.404Z,4.20
2023-03-22T10:36:27.120Z,4.15
2023-03-22T10:40:20.710Z,3.40
2023-03-22T10:44:04.701Z,4.82
2023-03-22T10:48:05.774Z,3.90
2023-03-22T10:51:50.909Z,3.70
2023-03-22T10:55:32.920Z,4.15
2023-03-22T10:59:47.789Z,3.85
2023-03-22T11:03:36.145Z,3.88
2023-03-22T11:07:27.897Z,4.32
2023-03-22T11:11:21.976Z,4.00
2023-03-22T11:15:05.414Z,3.90
2023-03-22T11:18:47.613Z,4.35
2023-03-22T11:22:40.208Z,3.87
2023-03-22T11:26:39.184Z,4.43
2023-03-22T11:30:27.617Z,4.25
2023-03-22T11:34:17.703Z,4.65
2023-03-22T11:38:02.289Z,4.60
2023-03-22T11:41:45.712Z,5.63
2023-03-22T11:45:31.581Z,3.65
2023-03-22T11:49:17.140Z,4.20
2023-03-22T11:53:02.811Z,4.82
2023-03-22T11:56:48.242Z,5.10
2023-03-22T12:00:33.329Z,3.83
2023-03-22T12:04:21.037Z,4.15
2023-03-22T12:08:35.314Z,3.90
2023-03-22T12:12:23.055Z,4.35
2023-03-22T12:16:07.871Z,4.25
2023-03-22T12:20:16.134Z,4.60
2023-03-22T12:24:02.617Z,4.28
2023-03-22T12:27:50.075Z,4.05
2023-03-22T12:31:38.846Z,3.60
2023-03-22T12:35:29.519Z,4.40
2023-03-22T12:39:26.396Z,4.30
2023-03-22T12:43:45.664Z,4.00
2023-03-22T12:47:41.684Z,3.92
2023-03-22T12:51:23.841Z,5.32
2023-03-22T12:55:06.796Z,5.60
2023-03-22T13:02:36.220Z,4.03
2023-03-22T13:06:45.414Z,4.07
2023-03-22T13:10:33.988Z,4.35
2023-03-22T13:14:52.880Z,4.40
2023-03-22T13:18:37.957Z,4.97
2023-03-22T13:22:27.100Z,3.97
2023-03-22T13:26:16.257Z,4.53
2023-03-22T13:29:59.472Z,3.90
2023-03-22T13:33:41.602Z,3.95
2023-03-22T13:37:36.001Z,7.27
2023-03-22T13:41:29.514Z,6.25
2023-03-22T13:45:33.535Z,7.40
2023-03-22T13:49:40.259Z,7.07
2023-03-22T13:53:33.814Z,8.30
2023-03-22T13:57:46.378Z,5.38
2023-03-22T14:01:36.851Z,7.57
2023-03-22T14:05:22.811Z,6.57
2023-03-22T14:09:13.794Z,7.78
2023-03-22T14:13:19.020Z,7.90
2023-03-22T14:17:11.751Z,6.22
2023-03-22T14:20:58.838Z,9.05
